Terminal Aerodrome Forecast
Issued by NWS Louisville, KY

Home | Current Version | Previous Version | Text Only | Print | Product List | Glossary On
Versions: 1 2 3 4 5 6 7 8 9 10 11 12 13 14
080
FTUS43 KLMK 221729
TAFSDF
TAF
KSDF 221729Z 2218/2324 26006KT P6SM VCSH SCT050 BKN250
     FM222200 VRB04KT P6SM SCT250
     FM231000 VRB03KT 6SM BR SCT250
     FM231300 18004KT P6SM SCT050=

USA.gov is the U.S. government's official web portal to all federal, state and local government web resources and services.